createdAt,value
2022-09-21T00:00:34.004Z,0.80
2022-09-21T00:03:17.656Z,3.72
2022-09-21T00:06:01.295Z,0.80
2022-09-21T00:08:44.020Z,1.83
2022-09-21T00:14:19.560Z,1.00
2022-09-21T00:17:03.506Z,1.90
2022-09-21T00:19:48.119Z,1.00
2022-09-21T00:22:37.626Z,1.20
2022-09-21T00:25:17.078Z,2.20
2022-09-21T00:27:54.648Z,0.90
2022-09-21T00:30:46.720Z,1.15
2022-09-21T00:33:35.445Z,1.25
2022-09-21T00:36:24.777Z,0.80
2022-09-21T00:39:13.435Z,2.08
2022-09-21T00:41:56.022Z,1.13
2022-09-21T00:44:45.280Z,0.98
2022-09-21T00:47:38.176Z,0.90
2022-09-21T00:50:25.630Z,3.58
2022-09-21T00:53:19.106Z,2.03
2022-09-21T00:56:05.203Z,1.20
2022-09-21T00:58:49.705Z,1.98
2022-09-21T01:01:42.612Z,1.75
2022-09-21T01:07:18.336Z,0.82
2022-09-21T01:10:05.875Z,1.75
2022-09-21T01:13:16.107Z,1.40
2022-09-21T01:16:22.201Z,2.42
2022-09-21T01:19:29.510Z,3.70
2022-09-21T01:22:20.478Z,1.25
2022-09-21T01:28:26.627Z,2.70
2022-09-21T01:31:15.488Z,1.83
2022-09-21T01:34:01.766Z,1.20
2022-09-21T01:36:41.407Z,1.10
2022-09-21T01:39:29.433Z,1.05
2022-09-21T01:42:25.299Z,4.43
2022-09-21T01:45:37.045Z,1.33
2022-09-21T01:48:23.892Z,1.80
2022-09-21T01:51:01.212Z,1.20
2022-09-21T01:54:04.484Z,1.33
2022-09-21T01:56:43.870Z,0.82
2022-09-21T01:59:30.071Z,1.10
2022-09-21T02:02:31.148Z,0.50
2022-09-21T02:05:18.598Z,1.00
2022-09-21T02:08:06.141Z,1.60
2022-09-21T02:11:02.208Z,2.10
2022-09-21T02:13:39.123Z,1.30
2022-09-21T02:16:38.602Z,0.80
2022-09-21T02:22:23.146Z,0.77
2022-09-21T02:25:22.229Z,1.17
2022-09-21T02:28:06.596Z,1.02
2022-09-21T02:31:18.667Z,0.95
2022-09-21T02:34:14.535Z,0.85
2022-09-21T02:37:07.604Z,2.45
2022-09-21T02:43:16.943Z,2.65
2022-09-21T02:46:20.226Z,0.90
2022-09-21T02:49:30.806Z,1.30
2022-09-21T02:52:11.414Z,0.90
2022-09-21T02:54:57.049Z,3.00
2022-09-21T02:57:50.769Z,0.90
2022-09-21T03:00:53.335Z,1.23
2022-09-21T03:03:52.212Z,1.25
2022-09-21T03:06:35.898Z,1.75
2022-09-21T03:09:26.251Z,2.20
2022-09-21T03:12:10.831Z,0.98
2022-09-21T03:14:55.158Z,1.33
2022-09-21T03:17:33.241Z,1.42
2022-09-21T03:20:18.587Z,1.30
2022-09-21T03:23:03.912Z,0.93
2022-09-21T03:25:40.979Z,14.53
2022-09-21T03:28:39.357Z,1.70
2022-09-21T03:31:33.283Z,2.93
2022-09-21T03:34:27.432Z,0.97
2022-09-21T03:37:09.402Z,1.20
2022-09-21T03:39:44.922Z,1.43
2022-09-21T03:42:29.995Z,1.90
2022-09-21T03:45:13.276Z,7.20
2022-09-21T03:48:11.166Z,1.20
2022-09-21T03:50:58.115Z,2.07
2022-09-21T03:53:39.542Z,1.33
2022-09-21T03:56:17.625Z,1.85
2022-09-21T03:59:01.136Z,0.90
2022-09-21T04:01:47.878Z,1.10
2022-09-21T04:07:42.623Z,4.67
2022-09-21T04:10:47.856Z,1.10
2022-09-21T04:14:02.545Z,1.10
2022-09-21T04:16:54.427Z,2.83
2022-09-21T04:19:50.686Z,0.90
2022-09-21T04:22:43.769Z,1.50
2022-09-21T04:25:24.563Z,1.70
2022-09-21T04:28:27.073Z,1.60
2022-09-21T04:34:07.796Z,0.80
2022-09-21T04:37:10.762Z,0.60
2022-09-21T04:39:55.892Z,0.87
2022-09-21T04:42:46.146Z,0.80
2022-09-21T04:45:28.474Z,1.10
2022-09-21T04:48:05.985Z,1.10
2022-09-21T04:51:08.904Z,1.88
2022-09-21T04:54:21.704Z,1.77
2022-09-21T04:57:19.520Z,2.17
2022-09-21T05:00:22.111Z,0.70
2022-09-21T05:03:16.283Z,3.53
2022-09-21T05:06:07.441Z,1.70
2022-09-21T05:09:05.699Z,1.50
2022-09-21T05:11:48.242Z,1.10
2022-09-21T05:14:54.568Z,1.03
2022-09-21T05:17:30.072Z,1.17
2022-09-21T05:20:19.348Z,2.07
2022-09-21T05:23:05.696Z,1.87
2022-09-21T05:25:54.779Z,2.27
2022-09-21T05:28:46.597Z,1.70
2022-09-21T05:31:42.626Z,0.90
2022-09-21T05:34:50.093Z,0.90
2022-09-21T05:38:00.703Z,1.10
2022-09-21T05:40:59.786Z,2.47
2022-09-21T05:43:41.943Z,1.17
2022-09-21T05:46:56.408Z,1.40
2022-09-21T05:49:53.661Z,1.53
2022-09-21T05:55:55.414Z,1.40
2022-09-21T05:59:02.715Z,2.67
2022-09-21T06:01:55.661Z,1.53
2022-09-21T06:04:30.685Z,3.20
2022-09-21T06:07:13.851Z,1.10
2022-09-21T06:09:51.465Z,0.90
2022-09-21T06:12:44.514Z,2.47
2022-09-21T06:15:39.313Z,5.53
2022-09-21T06:18:41.036Z,1.50
2022-09-21T06:21:37.198Z,3.10
2022-09-21T06:24:15.930Z,1.20
2022-09-21T06:27:05.777Z,1.85
2022-09-21T06:29:52.714Z,1.05
2022-09-21T07:01:20.657Z,1.70
2022-09-21T07:04:18.447Z,3.10
2022-09-21T07:07:21.400Z,5.93
2022-09-21T07:10:06.666Z,2.03
2022-09-21T07:12:58.629Z,2.00
2022-09-21T07:15:41.370Z,2.38
2022-09-21T07:18:25.509Z,1.88
2022-09-21T07:21:00.697Z,2.67
2022-09-21T07:23:55.394Z,1.55
2022-09-21T07:26:37.966Z,4.03
2022-09-21T07:29:19.930Z,2.20
2022-09-21T07:35:17.124Z,1.40
2022-09-21T07:37:55.741Z,1.98
2022-09-21T07:40:46.620Z,1.42
2022-09-21T07:43:24.902Z,1.25
2022-09-21T07:46:13.902Z,1.00
2022-09-21T07:49:14.071Z,1.35
2022-09-21T07:51:53.270Z,2.03
2022-09-21T07:54:39.270Z,3.17
2022-09-21T07:57:31.495Z,2.97
2022-09-21T08:00:08.734Z,1.98
2022-09-21T08:03:06.873Z,2.28
2022-09-21T08:05:53.894Z,2.67
2022-09-21T08:08:37.863Z,6.20
2022-09-21T08:11:19.881Z,3.10
2022-09-21T08:14:21.085Z,2.40
2022-09-21T08:17:12.900Z,4.10
2022-09-21T08:20:07.846Z,4.22
2022-09-21T08:22:54.050Z,3.30
2022-09-21T08:25:29.802Z,4.32
2022-09-21T08:28:09.633Z,7.53
2022-09-21T08:30:44.448Z,2.40
2022-09-21T08:33:29.406Z,2.85
2022-09-21T08:36:03.628Z,3.15
2022-09-21T08:42:22.496Z,8.52
2022-09-21T08:45:13.563Z,11.82
2022-09-21T08:48:09.095Z,6.18
2022-09-21T08:50:50.552Z,2.42
2022-09-21T08:53:56.961Z,4.53
2022-09-21T08:57:00.997Z,2.65
2022-09-21T08:59:47.351Z,2.35
2022-09-21T09:03:13.832Z,2.20
2022-09-21T09:06:14.841Z,8.48
2022-09-21T09:09:44.146Z,5.93
2022-09-21T09:12:43.035Z,25.40
2022-09-21T09:16:13.498Z,18.42
2022-09-21T10:39:08.592Z,7.60
2022-09-21T10:42:09.962Z,7.93
2022-09-21T10:44:49.170Z,6.88
2022-09-21T10:47:39.027Z,6.22
2022-09-21T10:56:45.713Z,6.10
2022-09-21T11:03:00.650Z,4.18
2022-09-21T11:05:49.240Z,3.40
2022-09-21T11:08:28.010Z,3.70
2022-09-21T11:11:40.635Z,4.45
2022-09-21T11:14:37.739Z,4.80
2022-09-21T11:17:37.360Z,3.85
2022-09-21T11:20:45.615Z,4.28
2022-09-21T11:23:46.358Z,4.80
2022-09-21T11:26:31.269Z,6.05
2022-09-21T11:29:20.108Z,10.68
2022-09-21T11:32:40.301Z,8.38
2022-09-21T11:35:45.746Z,5.97
2022-09-21T11:38:47.692Z,9.30
2022-09-21T11:41:54.995Z,18.30
2022-09-21T11:44:51.018Z,16.48
2022-09-21T11:48:13.800Z,11.45
2022-09-21T11:51:20.162Z,10.50
2022-09-21T11:54:19.050Z,8.95
2022-09-21T11:57:26.009Z,6.18
2022-09-21T12:00:21.291Z,7.80
2022-09-21T12:03:37.824Z,8.95
2022-09-21T12:06:54.159Z,8.80
2022-09-21T12:10:14.889Z,8.38
2022-09-21T12:13:02.809Z,8.80
2022-09-21T12:15:48.997Z,7.28
2022-09-21T12:18:46.145Z,7.32
2022-09-21T12:21:39.851Z,5.63
2022-09-21T12:24:32.133Z,5.82
2022-09-21T12:27:35.689Z,6.72
2022-09-21T12:30:16.272Z,6.20
2022-09-21T12:33:02.988Z,5.85
2022-09-21T12:35:55.114Z,5.32
2022-09-21T12:38:36.854Z,3.70
2022-09-21T12:41:19.050Z,2.47
2022-09-21T12:44:07.453Z,2.03
2022-09-21T12:47:06.419Z,2.10
2022-09-21T12:49:48.850Z,2.50
2022-09-21T12:52:39.046Z,3.13
2022-09-21T12:55:38.825Z,3.70
2022-09-21T13:01:22.746Z,11.60
2022-09-21T13:04:27.457Z,8.10
2022-09-21T13:10:54.910Z,2.35
2022-09-21T13:14:15.888Z,1.92
2022-09-21T13:17:13.933Z,2.45
2022-09-21T13:20:06.869Z,2.30
2022-09-21T13:22:45.951Z,2.20
2022-09-21T13:25:45.158Z,2.20
2022-09-21T13:28:46.592Z,1.60
2022-09-21T13:32:05.004Z,1.45
2022-09-21T13:34:52.725Z,1.50
2022-09-21T13:37:46.180Z,1.50
2022-09-21T13:41:13.844Z,1.63
2022-09-21T13:44:14.249Z,1.60
2022-09-21T13:47:17.035Z,1.63
2022-09-21T13:50:16.753Z,1.60
2022-09-21T13:53:00.532Z,1.88
2022-09-21T13:56:01.031Z,1.85
2022-09-21T13:58:51.609Z,1.55
2022-09-21T14:01:48.166Z,2.60
2022-09-21T14:04:32.139Z,5.75
2022-09-21T14:10:26.784Z,3.22
2022-09-21T14:13:09.421Z,2.15
2022-09-21T14:15:47.190Z,1.85
2022-09-21T14:18:42.138Z,1.90
2022-09-21T14:21:29.833Z,1.48
2022-09-21T14:24:33.892Z,2.05
2022-09-21T14:27:38.706Z,1.85
2022-09-21T14:30:31.176Z,2.75
2022-09-21T14:33:28.511Z,3.05
2022-09-21T14:36:09.976Z,2.88
2022-09-21T14:39:04.532Z,2.40
2022-09-21T14:41:58.031Z,2.05
2022-09-21T14:44:53.661Z,1.90
2022-09-21T14:48:02.398Z,2.05
2022-09-21T14:54:22.657Z,1.88
2022-09-21T14:57:57.081Z,1.85
2022-09-21T15:00:59.894Z,2.75
2022-09-21T15:04:05.132Z,2.60
2022-09-21T15:07:14.332Z,2.20
2022-09-21T15:10:34.061Z,2.70
2022-09-21T15:13:38.130Z,2.60
2022-09-21T15:16:34.223Z,2.33
2022-09-21T15:19:32.571Z,2.70
2022-09-21T15:22:36.639Z,3.00
2022-09-21T15:25:20.460Z,2.80
2022-09-21T15:28:02.512Z,2.90
2022-09-21T15:30:57.090Z,2.65
2022-09-21T15:33:52.200Z,2.60
2022-09-21T15:36:44.221Z,2.97
2022-09-21T15:39:47.228Z,2.75
2022-09-21T15:42:37.323Z,2.63
2022-09-21T15:45:38.001Z,2.85
2022-09-21T15:48:15.102Z,2.75
2022-09-21T15:51:13.532Z,2.60
2022-09-21T15:54:10.823Z,2.73
2022-09-21T15:56:54.530Z,2.30
2022-09-21T15:59:32.607Z,2.63
2022-09-21T16:02:19.839Z,3.47
2022-09-21T16:04:56.078Z,2.83
2022-09-21T16:07:44.013Z,3.00
2022-09-21T16:10:49.043Z,3.08
2022-09-21T16:13:46.562Z,3.08
2022-09-21T16:16:38.097Z,3.38
2022-09-21T16:19:15.947Z,3.45
2022-09-21T16:21:50.795Z,3.08
2022-09-21T16:24:48.703Z,3.10
2022-09-21T16:27:33.046Z,3.20
2022-09-21T16:30:10.583Z,3.30
2022-09-21T16:32:56.688Z,3.88
2022-09-21T16:35:41.342Z,3.58
2022-09-21T16:38:27.670Z,3.53
2022-09-21T16:41:17.539Z,3.10
2022-09-21T16:44:06.458Z,3.33
2022-09-21T16:46:41.766Z,3.63
2022-09-21T16:49:35.195Z,2.95
2022-09-21T16:52:18.370Z,4.15
2022-09-21T16:55:09.265Z,4.40
2022-09-21T16:57:53.227Z,4.20
2022-09-21T17:00:36.055Z,4.47
2022-09-21T17:06:26.013Z,4.30
2022-09-21T17:08:57.928Z,4.25
2022-09-21T17:11:38.203Z,3.90
2022-09-21T17:14:26.517Z,4.10
2022-09-21T17:17:20.457Z,4.13
2022-09-21T17:20:03.258Z,4.65
2022-09-21T17:22:44.890Z,4.20
2022-09-21T17:25:18.370Z,4.35
2022-09-21T17:28:01.853Z,4.32
2022-09-21T17:30:40.196Z,4.30
2022-09-21T17:33:36.292Z,3.60
2022-09-21T17:36:25.722Z,5.05
2022-09-21T17:39:05.258Z,5.00
2022-09-21T17:42:00.356Z,4.47
2022-09-21T17:44:56.150Z,4.60
2022-09-21T17:47:45.325Z,4.10
2022-09-21T17:50:31.249Z,4.50
2022-09-21T17:56:38.400Z,3.85
2022-09-21T17:59:50.808Z,4.22
2022-09-21T18:02:50.502Z,3.85
2022-09-21T18:08:25.102Z,3.20
2022-09-21T18:11:14.970Z,3.65
2022-09-21T18:16:43.779Z,4.32
2022-09-21T18:20:14.606Z,3.85
2022-09-21T18:23:07.266Z,3.90
2022-09-21T18:26:17.849Z,4.00
2022-09-21T18:29:28.561Z,4.60
2022-09-21T18:32:37.092Z,3.95
2022-09-21T18:35:52.734Z,3.55
2022-09-21T18:38:47.298Z,4.10
2022-09-21T18:41:40.609Z,3.95
2022-09-21T18:44:35.889Z,3.88
2022-09-21T18:47:31.406Z,3.70
2022-09-21T18:50:38.049Z,3.47
2022-09-21T18:53:35.406Z,3.22
2022-09-21T18:56:23.454Z,3.77
2022-09-21T18:59:01.687Z,3.30
2022-09-21T19:01:51.758Z,3.72
2022-09-21T19:04:29.897Z,3.53
2022-09-21T19:07:29.428Z,4.13
2022-09-21T19:10:21.550Z,4.22
2022-09-21T19:13:38.966Z,3.75
2022-09-21T19:16:37.332Z,3.05
2022-09-21T19:19:49.652Z,3.50
2022-09-21T19:22:40.225Z,3.58
2022-09-21T19:25:25.795Z,3.50
2022-09-21T19:28:02.363Z,3.92
2022-09-21T19:30:54.993Z,3.50
2022-09-21T19:33:52.588Z,3.50
2022-09-21T19:36:41.047Z,3.40
2022-09-21T19:39:21.543Z,3.70
2022-09-21T19:42:32.342Z,2.78
2022-09-21T19:45:31.719Z,3.08
2022-09-21T19:48:33.467Z,3.10
2022-09-21T19:51:18.247Z,3.55
2022-09-21T19:54:25.651Z,3.13
2022-09-21T19:57:16.938Z,3.13
2022-09-21T20:03:01.918Z,2.97
2022-09-21T20:05:56.862Z,3.08
2022-09-21T20:08:40.418Z,3.88
2022-09-21T20:11:30.752Z,3.17
2022-09-21T20:14:19.746Z,4.00
2022-09-21T20:17:09.249Z,3.40
2022-09-21T20:19:55.893Z,3.33
2022-09-21T20:22:42.527Z,3.45
2022-09-21T20:25:31.608Z,4.43
2022-09-21T20:28:05.213Z,3.13
2022-09-21T20:30:41.360Z,3.40
2022-09-21T20:33:32.851Z,3.63
2022-09-21T20:36:22.614Z,3.97
2022-09-21T20:39:05.499Z,3.20
2022-09-21T20:41:47.053Z,3.78
2022-09-21T20:44:40.251Z,3.53
2022-09-21T20:47:55.603Z,2.90
2022-09-21T20:50:38.543Z,3.17
2022-09-21T20:56:20.457Z,3.38
2022-09-21T20:58:54.897Z,3.97
2022-09-21T21:01:32.352Z,3.80
2022-09-21T21:04:19.775Z,3.75
2022-09-21T21:07:42.162Z,4.13
2022-09-21T21:10:29.959Z,3.97
2022-09-21T21:13:12.897Z,3.25
2022-09-21T21:16:15.491Z,4.13
2022-09-21T21:18:59.794Z,3.70
2022-09-21T21:21:36.823Z,3.08
2022-09-21T21:24:31.826Z,3.60
2022-09-21T21:27:05.419Z,3.33
2022-09-21T21:30:34.561Z,3.63
2022-09-21T21:33:33.874Z,3.13
2022-09-21T21:36:24.137Z,3.78
2022-09-21T21:39:13.172Z,3.95
2022-09-21T21:42:09.627Z,3.75
2022-09-21T21:48:16.835Z,4.38
2022-09-21T21:51:10.312Z,4.65
2022-09-21T21:53:58.193Z,4.50
2022-09-21T21:56:43.567Z,5.40
2022-09-21T21:59:31.773Z,5.10
2022-09-21T22:02:20.387Z,5.80
2022-09-21T22:05:23.788Z,4.80
2022-09-21T22:08:15.216Z,4.57
2022-09-21T22:11:17.196Z,4.95
2022-09-21T22:13:56.302Z,4.35
2022-09-21T22:16:46.602Z,4.88
2022-09-21T22:19:21.815Z,4.63
2022-09-21T22:22:08.970Z,4.18
2022-09-21T22:24:51.917Z,4.80
2022-09-21T22:27:30.685Z,5.30
2022-09-21T22:30:09.431Z,5.05
2022-09-21T22:33:03.234Z,4.50
2022-09-21T22:41:23.669Z,4.47
2022-09-21T22:44:01.525Z,4.88
2022-09-21T22:52:43.309Z,6.50
2022-09-21T22:58:13.716Z,7.05
2022-09-21T23:01:05.247Z,6.90
2022-09-21T23:03:50.936Z,6.22
2022-09-21T23:06:46.035Z,6.68
2022-09-21T23:09:25.369Z,6.93
2022-09-21T23:17:51.157Z,10.25
2022-09-21T23:20:27.898Z,7.80
2022-09-21T23:23:27.804Z,7.63
2022-09-21T23:26:29.797Z,7.45
2022-09-21T23:29:16.927Z,7.85
2022-09-21T23:34:55.216Z,6.97
2022-09-21T23:37:42.873Z,7.47
2022-09-21T23:40:48.289Z,6.50
2022-09-21T23:43:44.637Z,3.63
2022-09-21T23:46:29.554Z,3.15
2022-09-21T23:49:17.951Z,4.05
2022-09-21T23:52:39.632Z,2.40
2022-09-21T23:55:26.590Z,1.98
2022-09-21T23:58:12.976Z,2.72
